sensor_id;sensor_type;location;lat;lon;timestamp;temperature;humidity
28071;DHT22;15383;48.408;9.968;2024-01-30T00:01:48;7.60;99.90
28071;DHT22;15383;48.408;9.968;2024-01-30T00:04:14;7.60;99.90
28071;DHT22;15383;48.408;9.968;2024-01-30T00:06:39;7.60;99.90
28071;DHT22;15383;48.408;9.968;2024-01-30T00:09:05;7.60;99.90
28071;DHT22;15383;48.408;9.968;2024-01-30T00:11:30;7.60;99.90
28071;DHT22;15383;48.408;9.968;2024-01-30T00:13:56;7.60;99.90
28071;DHT22;15383;48.408;9.968;2024-01-30T00:16:23;7.60;99.90
28071;DHT22;15383;48.408;9.968;2024-01-30T00:18:52;7.60;99.90
28071;DHT22;15383;48.408;9.968;2024-01-30T00:21:19;7.60;99.90
28071;DHT22;15383;48.408;9.968;2024-01-30T00:23:45;7.60;99.90
28071;DHT22;15383;48.408;9.968;2024-01-30T00:26:11;7.60;99.90
28071;DHT22;15383;48.408;9.968;2024-01-30T00:28:40;7.60;99.90
28071;DHT22;15383;48.408;9.968;2024-01-30T00:31:06;7.60;99.90
28071;DHT22;15383;48.408;9.968;2024-01-30T00:33:31;7.60;99.90
28071;DHT22;15383;48.408;9.968;2024-01-30T00:35:57;7.60;99.90
28071;DHT22;15383;48.408;9.968;2024-01-30T00:38:22;7.60;99.90
28071;DHT22;15383;48.408;9.968;2024-01-30T00:40:48;7.60;99.90
28071;DHT22;15383;48.408;9.968;2024-01-30T00:43:14;7.60;99.90
28071;DHT22;15383;48.408;9.968;2024-01-30T00:45:40;7.60;99.90
28071;DHT22;15383;48.408;9.968;2024-01-30T00:48:06;7.60;99.90
28071;DHT22;15383;48.408;9.968;2024-01-30T00:50:31;7.60;99.90
28071;DHT22;15383;48.408;9.968;2024-01-30T00:52:57;7.60;99.90
28071;DHT22;15383;48.408;9.968;2024-01-30T00:55:23;7.60;99.90
28071;DHT22;15383;48.408;9.968;2024-01-30T00:57:48;7.60;99.90
28071;DHT22;15383;48.408;9.968;2024-01-30T01:00:14;7.60;99.90
28071;DHT22;15383;48.408;9.968;2024-01-30T01:02:42;7.60;99.90
28071;DHT22;15383;48.408;9.968;2024-01-30T01:05:08;7.60;99.90
28071;DHT22;15383;48.408;9.968;2024-01-30T01:07:34;7.60;99.90
28071;DHT22;15383;48.408;9.968;2024-01-30T01:09:59;7.60;99.90
28071;DHT22;15383;48.408;9.968;2024-01-30T01:12:25;7.60;99.90
28071;DHT22;15383;48.408;9.968;2024-01-30T01:14:50;7.60;99.90
28071;DHT22;15383;48.408;9.968;2024-01-30T01:17:16;7.60;99.90
28071;DHT22;15383;48.408;9.968;2024-01-30T01:19:43;7.60;99.90
28071;DHT22;15383;48.408;9.968;2024-01-30T01:22:09;7.60;99.90
28071;DHT22;15383;48.408;9.968;2024-01-30T01:24:35;7.60;99.90
28071;DHT22;15383;48.408;9.968;2024-01-30T01:27:01;7.60;99.90
28071;DHT22;15383;48.408;9.968;2024-01-30T01:29:27;7.60;99.90
28071;DHT22;15383;48.408;9.968;2024-01-30T01:31:55;7.60;99.90
28071;DHT22;15383;48.408;9.968;2024-01-30T01:34:21;7.60;99.90
28071;DHT22;15383;48.408;9.968;2024-01-30T01:36:47;7.60;99.90
28071;DHT22;15383;48.408;9.968;2024-01-30T01:39:12;7.60;99.90
28071;DHT22;15383;48.408;9.968;2024-01-30T01:41:38;7.60;99.90
28071;DHT22;15383;48.408;9.968;2024-01-30T01:44:04;7.60;99.90
28071;DHT22;15383;48.408;9.968;2024-01-30T01:46:33;7.60;99.90
28071;DHT22;15383;48.408;9.968;2024-01-30T01:48:59;7.60;99.90
28071;DHT22;15383;48.408;9.968;2024-01-30T01:51:27;7.60;99.90
28071;DHT22;15383;48.408;9.968;2024-01-30T01:53:56;7.60;99.90
28071;DHT22;15383;48.408;9.968;2024-01-30T01:56:23;7.60;99.90
28071;DHT22;15383;48.408;9.968;2024-01-30T01:58:49;7.60;99.90
28071;DHT22;15383;48.408;9.968;2024-01-30T02:01:17;7.60;99.90
28071;DHT22;15383;48.408;9.968;2024-01-30T02:03:44;7.60;99.90
28071;DHT22;15383;48.408;9.968;2024-01-30T02:06:10;7.60;99.90
28071;DHT22;15383;48.408;9.968;2024-01-30T02:08:37;7.60;99.90
28071;DHT22;15383;48.408;9.968;2024-01-30T02:11:03;7.60;99.90
28071;DHT22;15383;48.408;9.968;2024-01-30T02:13:28;7.60;99.90
28071;DHT22;15383;48.408;9.968;2024-01-30T02:15:54;7.60;99.90
28071;DHT22;15383;48.408;9.968;2024-01-30T02:18:20;7.60;99.90
28071;DHT22;15383;48.408;9.968;2024-01-30T02:20:48;7.60;99.90
28071;DHT22;15383;48.408;9.968;2024-01-30T02:23:15;7.60;99.90
28071;DHT22;15383;48.408;9.968;2024-01-30T02:25:42;7.60;99.90
28071;DHT22;15383;48.408;9.968;2024-01-30T02:28:13;7.60;99.90
28071;DHT22;15383;48.408;9.968;2024-01-30T02:30:39;7.60;99.90
28071;DHT22;15383;48.408;9.968;2024-01-30T02:33:05;7.60;99.90
28071;DHT22;15383;48.408;9.968;2024-01-30T02:35:31;7.60;99.90
28071;DHT22;15383;48.408;9.968;2024-01-30T02:37:56;7.60;99.90
28071;DHT22;15383;48.408;9.968;2024-01-30T02:40:22;7.60;99.90
28071;DHT22;15383;48.408;9.968;2024-01-30T02:42:47;7.60;99.90
28071;DHT22;15383;48.408;9.968;2024-01-30T02:45:13;7.60;99.90
28071;DHT22;15383;48.408;9.968;2024-01-30T02:47:39;7.60;99.90
28071;DHT22;15383;48.408;9.968;2024-01-30T02:50:05;7.60;99.90
28071;DHT22;15383;48.408;9.968;2024-01-30T02:52:31;7.60;99.90
28071;DHT22;15383;48.408;9.968;2024-01-30T02:54:56;7.60;99.90
28071;DHT22;15383;48.408;9.968;2024-01-30T02:57:22;7.60;99.90
28071;DHT22;15383;48.408;9.968;2024-01-30T02:59:47;7.60;99.90
28071;DHT22;15383;48.408;9.968;2024-01-30T03:02:13;7.60;99.90
28071;DHT22;15383;48.408;9.968;2024-01-30T03:04:41;7.60;99.90
28071;DHT22;15383;48.408;9.968;2024-01-30T03:07:06;7.60;99.90
28071;DHT22;15383;48.408;9.968;2024-01-30T03:09:32;7.60;99.90
28071;DHT22;15383;48.408;9.968;2024-01-30T03:11:57;7.50;99.90
28071;DHT22;15383;48.408;9.968;2024-01-30T03:14:23;7.50;99.90
28071;DHT22;15383;48.408;9.968;2024-01-30T03:16:48;7.60;99.90
28071;DHT22;15383;48.408;9.968;2024-01-30T03:19:14;7.60;99.90
28071;DHT22;15383;48.408;9.968;2024-01-30T03:21:39;7.50;99.90
28071;DHT22;15383;48.408;9.968;2024-01-30T03:24:05;7.50;99.90
28071;DHT22;15383;48.408;9.968;2024-01-30T03:26:31;7.50;99.90
28071;DHT22;15383;48.408;9.968;2024-01-30T03:28:56;7.60;99.90
28071;DHT22;15383;48.408;9.968;2024-01-30T03:31:22;7.50;99.90
28071;DHT22;15383;48.408;9.968;2024-01-30T03:33:47;7.50;99.90
28071;DHT22;15383;48.408;9.968;2024-01-30T03:36:14;7.50;99.90
28071;DHT22;15383;48.408;9.968;2024-01-30T03:38:40;7.50;99.90
28071;DHT22;15383;48.408;9.968;2024-01-30T03:41:08;7.60;99.90
28071;DHT22;15383;48.408;9.968;2024-01-30T03:43:34;7.60;99.90
28071;DHT22;15383;48.408;9.968;2024-01-30T03:46:01;7.50;99.90
28071;DHT22;15383;48.408;9.968;2024-01-30T03:48:27;7.50;99.90
28071;DHT22;15383;48.408;9.968;2024-01-30T03:50:52;7.60;99.90
28071;DHT22;15383;48.408;9.968;2024-01-30T03:53:18;7.50;99.90
28071;DHT22;15383;48.408;9.968;2024-01-30T03:55:43;7.50;99.90
28071;DHT22;15383;48.408;9.968;2024-01-30T03:58:09;7.50;99.90
28071;DHT22;15383;48.408;9.968;2024-01-30T04:00:34;7.50;99.90
28071;DHT22;15383;48.408;9.968;2024-01-30T04:03:00;7.60;99.90
28071;DHT22;15383;48.408;9.968;2024-01-30T04:05:26;7.50;99.90
28071;DHT22;15383;48.408;9.968;2024-01-30T04:07:51;7.50;99.90
28071;DHT22;15383;48.408;9.968;2024-01-30T04:10:17;7.50;99.90
28071;DHT22;15383;48.408;9.968;2024-01-30T04:12:42;7.50;99.90
28071;DHT22;15383;48.408;9.968;2024-01-30T04:15:08;7.50;99.90
28071;DHT22;15383;48.408;9.968;2024-01-30T04:17:34;7.50;99.90
28071;DHT22;15383;48.408;9.968;2024-01-30T04:19:59;7.50;99.90
28071;DHT22;15383;48.408;9.968;2024-01-30T04:22:25;7.50;99.90
28071;DHT22;15383;48.408;9.968;2024-01-30T04:24:51;7.50;99.90
28071;DHT22;15383;48.408;9.968;2024-01-30T04:27:16;7.50;99.90
28071;DHT22;15383;48.408;9.968;2024-01-30T04:29:42;7.50;99.90
28071;DHT22;15383;48.408;9.968;2024-01-30T04:32:08;7.50;99.90
28071;DHT22;15383;48.408;9.968;2024-01-30T04:34:35;7.50;99.90
28071;DHT22;15383;48.408;9.968;2024-01-30T04:37:01;7.50;99.90
28071;DHT22;15383;48.408;9.968;2024-01-30T04:39:26;7.50;99.90
28071;DHT22;15383;48.408;9.968;2024-01-30T04:41:52;7.50;99.90
28071;DHT22;15383;48.408;9.968;2024-01-30T04:44:18;7.50;99.90
28071;DHT22;15383;48.408;9.968;2024-01-30T04:46:43;7.50;99.90
28071;DHT22;15383;48.408;9.968;2024-01-30T04:49:09;7.50;99.90
28071;DHT22;15383;48.408;9.968;2024-01-30T04:51:34;7.50;99.90
28071;DHT22;15383;48.408;9.968;2024-01-30T04:54:00;7.50;99.90
28071;DHT22;15383;48.408;9.968;2024-01-30T04:56:25;7.50;99.90
28071;DHT22;15383;48.408;9.968;2024-01-30T04:58:51;7.50;99.90
28071;DHT22;15383;48.408;9.968;2024-01-30T05:01:17;7.50;99.90
28071;DHT22;15383;48.408;9.968;2024-01-30T05:03:43;7.50;99.90
28071;DHT22;15383;48.408;9.968;2024-01-30T05:06:08;7.50;99.90
28071;DHT22;15383;48.408;9.968;2024-01-30T05:08:34;7.50;99.90
28071;DHT22;15383;48.408;9.968;2024-01-30T05:11:02;7.50;99.90
28071;DHT22;15383;48.408;9.968;2024-01-30T05:13:30;7.50;99.90
28071;DHT22;15383;48.408;9.968;2024-01-30T05:15:55;7.50;99.90
28071;DHT22;15383;48.408;9.968;2024-01-30T05:18:21;7.50;99.90
28071;DHT22;15383;48.408;9.968;2024-01-30T05:20:47;7.50;99.90
28071;DHT22;15383;48.408;9.968;2024-01-30T05:23:12;7.50;99.90
28071;DHT22;15383;48.408;9.968;2024-01-30T05:25:38;7.50;99.90
28071;DHT22;15383;48.408;9.968;2024-01-30T05:28:03;7.50;99.90
28071;DHT22;15383;48.408;9.968;2024-01-30T05:30:29;7.50;99.90
28071;DHT22;15383;48.408;9.968;2024-01-30T05:32:55;7.50;99.90
28071;DHT22;15383;48.408;9.968;2024-01-30T05:35:20;7.50;99.90
28071;DHT22;15383;48.408;9.968;2024-01-30T05:37:48;7.50;99.90
28071;DHT22;15383;48.408;9.968;2024-01-30T05:40:14;7.50;99.90
28071;DHT22;15383;48.408;9.968;2024-01-30T05:42:39;7.50;99.90
28071;DHT22;15383;48.408;9.968;2024-01-30T05:45:05;7.50;99.90
28071;DHT22;15383;48.408;9.968;2024-01-30T05:47:31;7.50;99.90
28071;DHT22;15383;48.408;9.968;2024-01-30T05:49:56;7.50;99.90
28071;DHT22;15383;48.408;9.968;2024-01-30T05:52:22;7.50;99.90
28071;DHT22;15383;48.408;9.968;2024-01-30T05:54:48;7.40;99.90
28071;DHT22;15383;48.408;9.968;2024-01-30T05:57:13;7.40;99.90
28071;DHT22;15383;48.408;9.968;2024-01-30T05:59:39;7.50;99.90
28071;DHT22;15383;48.408;9.968;2024-01-30T06:02:04;7.50;99.90
28071;DHT22;15383;48.408;9.968;2024-01-30T06:04:30;7.50;99.90
28071;DHT22;15383;48.408;9.968;2024-01-30T06:06:55;7.40;99.90
28071;DHT22;15383;48.408;9.968;2024-01-30T06:09:21;7.50;99.90
28071;DHT22;15383;48.408;9.968;2024-01-30T06:11:46;7.40;99.90
28071;DHT22;15383;48.408;9.968;2024-01-30T06:14:12;7.50;99.90
28071;DHT22;15383;48.408;9.968;2024-01-30T06:16:37;7.40;99.90
28071;DHT22;15383;48.408;9.968;2024-01-30T06:19:03;7.40;99.90
28071;DHT22;15383;48.408;9.968;2024-01-30T06:21:28;7.50;99.90
28071;DHT22;15383;48.408;9.968;2024-01-30T06:23:54;7.40;99.90
28071;DHT22;15383;48.408;9.968;2024-01-30T06:26:20;7.50;99.90
28071;DHT22;15383;48.408;9.968;2024-01-30T06:28:45;7.40;99.90
28071;DHT22;15383;48.408;9.968;2024-01-30T06:31:11;7.40;99.90
28071;DHT22;15383;48.408;9.968;2024-01-30T06:33:36;7.40;99.90
28071;DHT22;15383;48.408;9.968;2024-01-30T06:36:02;7.40;99.90
28071;DHT22;15383;48.408;9.968;2024-01-30T06:38:27;7.50;99.90
28071;DHT22;15383;48.408;9.968;2024-01-30T06:40:53;7.40;99.90
28071;DHT22;15383;48.408;9.968;2024-01-30T06:43:19;7.40;99.90
28071;DHT22;15383;48.408;9.968;2024-01-30T06:45:44;7.50;99.90
28071;DHT22;15383;48.408;9.968;2024-01-30T06:48:10;7.50;99.90
28071;DHT22;15383;48.408;9.968;2024-01-30T06:50:35;7.50;99.90
28071;DHT22;15383;48.408;9.968;2024-01-30T06:53:01;7.40;99.90
28071;DHT22;15383;48.408;9.968;2024-01-30T06:55:26;7.40;99.90
28071;DHT22;15383;48.408;9.968;2024-01-30T06:57:52;7.40;99.90
28071;DHT22;15383;48.408;9.968;2024-01-30T07:00:18;7.50;99.90
28071;DHT22;15383;48.408;9.968;2024-01-30T07:02:45;7.50;99.90
28071;DHT22;15383;48.408;9.968;2024-01-30T07:05:10;7.50;99.90
28071;DHT22;15383;48.408;9.968;2024-01-30T07:07:36;7.50;99.90
28071;DHT22;15383;48.408;9.968;2024-01-30T07:10:01;7.40;99.90
28071;DHT22;15383;48.408;9.968;2024-01-30T07:12:27;7.40;99.90
28071;DHT22;15383;48.408;9.968;2024-01-30T07:14:52;7.50;99.90
28071;DHT22;15383;48.408;9.968;2024-01-30T07:17:18;7.50;99.90
28071;DHT22;15383;48.408;9.968;2024-01-30T07:19:44;7.50;99.90
28071;DHT22;15383;48.408;9.968;2024-01-30T07:22:09;7.50;99.90
28071;DHT22;15383;48.408;9.968;2024-01-30T07:24:35;7.50;99.90
28071;DHT22;15383;48.408;9.968;2024-01-30T07:27:01;7.50;99.90
28071;DHT22;15383;48.408;9.968;2024-01-30T07:29:26;7.50;99.90
28071;DHT22;15383;48.408;9.968;2024-01-30T07:31:52;7.50;99.90
28071;DHT22;15383;48.408;9.968;2024-01-30T07:34:17;7.50;99.90
28071;DHT22;15383;48.408;9.968;2024-01-30T07:36:43;7.50;99.90
28071;DHT22;15383;48.408;9.968;2024-01-30T07:39:08;7.50;99.90
28071;DHT22;15383;48.408;9.968;2024-01-30T07:41:35;7.50;99.90
28071;DHT22;15383;48.408;9.968;2024-01-30T07:44:01;7.50;99.90
28071;DHT22;15383;48.408;9.968;2024-01-30T07:46:26;7.50;99.90
28071;DHT22;15383;48.408;9.968;2024-01-30T07:48:52;7.50;99.90
28071;DHT22;15383;48.408;9.968;2024-01-30T07:51:18;7.50;99.90
28071;DHT22;15383;48.408;9.968;2024-01-30T07:53:43;7.60;99.90
28071;DHT22;15383;48.408;9.968;2024-01-30T07:56:10;7.60;99.90
28071;DHT22;15383;48.408;9.968;2024-01-30T07:58:36;7.60;99.90
28071;DHT22;15383;48.408;9.968;2024-01-30T08:01:02;7.60;99.90
28071;DHT22;15383;48.408;9.968;2024-01-30T08:03:28;7.60;99.90
28071;DHT22;15383;48.408;9.968;2024-01-30T08:05:53;7.60;99.90
28071;DHT22;15383;48.408;9.968;2024-01-30T08:08:19;7.70;99.90
28071;DHT22;15383;48.408;9.968;2024-01-30T08:10:44;7.70;99.90
28071;DHT22;15383;48.408;9.968;2024-01-30T08:13:10;7.70;99.90
28071;DHT22;15383;48.408;9.968;2024-01-30T08:15:35;7.70;99.90
28071;DHT22;15383;48.408;9.968;2024-01-30T08:18:01;7.80;99.90
28071;DHT22;15383;48.408;9.968;2024-01-30T08:20:27;7.80;99.90
28071;DHT22;15383;48.408;9.968;2024-01-30T08:22:52;7.80;99.90
28071;DHT22;15383;48.408;9.968;2024-01-30T08:25:18;7.80;99.90
28071;DHT22;15383;48.408;9.968;2024-01-30T08:27:44;7.80;99.90
28071;DHT22;15383;48.408;9.968;2024-01-30T08:30:10;7.80;99.90
28071;DHT22;15383;48.408;9.968;2024-01-30T08:32:36;7.80;99.90
28071;DHT22;15383;48.408;9.968;2024-01-30T08:35:01;7.80;99.90
28071;DHT22;15383;48.408;9.968;2024-01-30T08:37:30;7.80;99.90
28071;DHT22;15383;48.408;9.968;2024-01-30T08:39:55;7.80;99.90
28071;DHT22;15383;48.408;9.968;2024-01-30T08:42:21;7.80;99.90
28071;DHT22;15383;48.408;9.968;2024-01-30T08:44:51;7.80;99.90
28071;DHT22;15383;48.408;9.968;2024-01-30T08:47:18;7.80;99.90
28071;DHT22;15383;48.408;9.968;2024-01-30T08:49:44;7.80;99.90
28071;DHT22;15383;48.408;9.968;2024-01-30T08:52:10;7.90;99.90
28071;DHT22;15383;48.408;9.968;2024-01-30T08:54:36;7.90;99.90
28071;DHT22;15383;48.408;9.968;2024-01-30T08:57:02;7.90;99.90
28071;DHT22;15383;48.408;9.968;2024-01-30T08:59:27;8.00;99.90
28071;DHT22;15383;48.408;9.968;2024-01-30T09:01:53;8.00;99.90
28071;DHT22;15383;48.408;9.968;2024-01-30T09:04:21;8.00;99.90
28071;DHT22;15383;48.408;9.968;2024-01-30T09:06:47;8.10;99.90
28071;DHT22;15383;48.408;9.968;2024-01-30T09:09:12;8.10;99.90
28071;DHT22;15383;48.408;9.968;2024-01-30T09:11:38;8.10;99.90
28071;DHT22;15383;48.408;9.968;2024-01-30T09:14:03;8.10;99.90
28071;DHT22;15383;48.408;9.968;2024-01-30T09:16:29;8.10;99.90
28071;DHT22;15383;48.408;9.968;2024-01-30T09:18:55;8.10;99.90
28071;DHT22;15383;48.408;9.968;2024-01-30T09:21:20;8.10;99.90
28071;DHT22;15383;48.408;9.968;2024-01-30T09:23:46;8.10;99.90
28071;DHT22;15383;48.408;9.968;2024-01-30T09:26:11;8.00;99.90
28071;DHT22;15383;48.408;9.968;2024-01-30T09:28:38;8.10;99.90
28071;DHT22;15383;48.408;9.968;2024-01-30T09:31:04;8.10;99.90
28071;DHT22;15383;48.408;9.968;2024-01-30T09:33:29;8.10;99.90
28071;DHT22;15383;48.408;9.968;2024-01-30T09:35:55;8.10;99.90
28071;DHT22;15383;48.408;9.968;2024-01-30T09:38:20;8.00;99.90
28071;DHT22;15383;48.408;9.968;2024-01-30T09:40:50;8.00;99.90
28071;DHT22;15383;48.408;9.968;2024-01-30T09:43:22;8.00;99.90
28071;DHT22;15383;48.408;9.968;2024-01-30T09:45:48;8.10;99.90
28071;DHT22;15383;48.408;9.968;2024-01-30T09:48:15;8.10;99.90
28071;DHT22;15383;48.408;9.968;2024-01-30T09:50:41;8.10;99.90
28071;DHT22;15383;48.408;9.968;2024-01-30T09:53:08;8.10;99.90
28071;DHT22;15383;48.408;9.968;2024-01-30T09:55:36;8.10;99.90
28071;DHT22;15383;48.408;9.968;2024-01-30T09:58:01;8.20;99.90
28071;DHT22;15383;48.408;9.968;2024-01-30T10:00:27;8.20;99.90
28071;DHT22;15383;48.408;9.968;2024-01-30T10:02:53;8.10;99.90
28071;DHT22;15383;48.408;9.968;2024-01-30T10:05:19;8.10;99.90
28071;DHT22;15383;48.408;9.968;2024-01-30T10:07:55;8.20;99.90
28071;DHT22;15383;48.408;9.968;2024-01-30T10:10:22;8.20;99.90
28071;DHT22;15383;48.408;9.968;2024-01-30T10:12:49;8.10;99.90
28071;DHT22;15383;48.408;9.968;2024-01-30T10:15:15;8.20;99.90
28071;DHT22;15383;48.408;9.968;2024-01-30T10:17:40;8.20;99.90
28071;DHT22;15383;48.408;9.968;2024-01-30T10:20:06;8.20;99.90
28071;DHT22;15383;48.408;9.968;2024-01-30T10:22:33;8.20;99.90
28071;DHT22;15383;48.408;9.968;2024-01-30T10:25:00;8.20;99.90
28071;DHT22;15383;48.408;9.968;2024-01-30T10:27:28;8.30;99.90
28071;DHT22;15383;48.408;9.968;2024-01-30T10:29:55;8.30;99.90
28071;DHT22;15383;48.408;9.968;2024-01-30T10:32:21;8.30;99.90
28071;DHT22;15383;48.408;9.968;2024-01-30T10:34:47;8.20;99.90
28071;DHT22;15383;48.408;9.968;2024-01-30T10:37:12;8.20;99.90
28071;DHT22;15383;48.408;9.968;2024-01-30T10:39:41;8.10;99.90
28071;DHT22;15383;48.408;9.968;2024-01-30T10:42:11;8.10;99.90
28071;DHT22;15383;48.408;9.968;2024-01-30T10:44:48;8.10;99.90
28071;DHT22;15383;48.408;9.968;2024-01-30T10:47:21;8.10;99.90
28071;DHT22;15383;48.408;9.968;2024-01-30T10:49:51;8.00;99.90
28071;DHT22;15383;48.408;9.968;2024-01-30T10:52:18;8.00;99.90
28071;DHT22;15383;48.408;9.968;2024-01-30T10:54:44;8.00;99.90
28071;DHT22;15383;48.408;9.968;2024-01-30T10:57:11;8.10;99.90
28071;DHT22;15383;48.408;9.968;2024-01-30T10:59:38;8.10;99.90
28071;DHT22;15383;48.408;9.968;2024-01-30T11:02:04;8.10;99.90
28071;DHT22;15383;48.408;9.968;2024-01-30T11:04:41;8.10;99.90
28071;DHT22;15383;48.408;9.968;2024-01-30T11:07:16;8.10;99.90
28071;DHT22;15383;48.408;9.968;2024-01-30T11:12:25;8.10;99.90
28071;DHT22;15383;48.408;9.968;2024-01-30T11:15:04;8.10;99.90
28071;DHT22;15383;48.408;9.968;2024-01-30T11:18:00;8.10;99.90
28071;DHT22;15383;48.408;9.968;2024-01-30T11:20:29;8.20;99.90
28071;DHT22;15383;48.408;9.968;2024-01-30T11:22:59;8.20;99.90
28071;DHT22;15383;48.408;9.968;2024-01-30T11:25:25;8.30;99.90
28071;DHT22;15383;48.408;9.968;2024-01-30T11:27:52;8.30;99.90
28071;DHT22;15383;48.408;9.968;2024-01-30T11:30:25;8.20;99.90
28071;DHT22;15383;48.408;9.968;2024-01-30T11:33:27;8.20;99.90
28071;DHT22;15383;48.408;9.968;2024-01-30T11:35:53;9.90;99.90
28071;DHT22;15383;48.408;9.968;2024-01-30T11:38:18;9.30;99.90
28071;DHT22;15383;48.408;9.968;2024-01-30T11:40:44;8.70;99.90
28071;DHT22;15383;48.408;9.968;2024-01-30T11:43:10;8.40;99.90
28071;DHT22;15383;48.408;9.968;2024-01-30T11:45:37;8.30;99.90
28071;DHT22;15383;48.408;9.968;2024-01-30T11:48:03;8.20;99.90
28071;DHT22;15383;48.408;9.968;2024-01-30T11:50:39;8.20;99.90
28071;DHT22;15383;48.408;9.968;2024-01-30T11:53:05;8.20;99.90
28071;DHT22;15383;48.408;9.968;2024-01-30T11:55:31;8.20;99.90
28071;DHT22;15383;48.408;9.968;2024-01-30T11:57:57;8.20;99.90
28071;DHT22;15383;48.408;9.968;2024-01-30T12:00:23;8.10;99.90
28071;DHT22;15383;48.408;9.968;2024-01-30T12:02:53;8.10;99.90
28071;DHT22;15383;48.408;9.968;2024-01-30T12:05:23;8.10;99.90
28071;DHT22;15383;48.408;9.968;2024-01-30T12:07:48;8.10;99.90
28071;DHT22;15383;48.408;9.968;2024-01-30T12:10:14;8.10;99.90
28071;DHT22;15383;48.408;9.968;2024-01-30T12:12:43;8.10;99.90
28071;DHT22;15383;48.408;9.968;2024-01-30T12:15:10;8.10;99.90
28071;DHT22;15383;48.408;9.968;2024-01-30T12:17:36;8.10;99.90
28071;DHT22;15383;48.408;9.968;2024-01-30T12:20:13;8.10;99.90
28071;DHT22;15383;48.408;9.968;2024-01-30T12:22:41;8.10;99.90
28071;DHT22;15383;48.408;9.968;2024-01-30T12:25:11;8.10;99.90
28071;DHT22;15383;48.408;9.968;2024-01-30T12:27:37;8.10;99.90
28071;DHT22;15383;48.408;9.968;2024-01-30T12:30:10;8.10;99.90
28071;DHT22;15383;48.408;9.968;2024-01-30T12:32:40;8.10;99.90
28071;DHT22;15383;48.408;9.968;2024-01-30T12:35:13;8.20;99.90
28071;DHT22;15383;48.408;9.968;2024-01-30T12:37:39;8.10;99.90
28071;DHT22;15383;48.408;9.968;2024-01-30T12:40:07;8.10;99.90
28071;DHT22;15383;48.408;9.968;2024-01-30T12:42:33;8.10;99.90
28071;DHT22;15383;48.408;9.968;2024-01-30T12:44:59;8.10;99.90
28071;DHT22;15383;48.408;9.968;2024-01-30T12:47:25;8.10;99.90
28071;DHT22;15383;48.408;9.968;2024-01-30T12:49:50;8.10;99.90
28071;DHT22;15383;48.408;9.968;2024-01-30T12:52:19;8.10;99.90
28071;DHT22;15383;48.408;9.968;2024-01-30T12:54:46;8.10;99.90
28071;DHT22;15383;48.408;9.968;2024-01-30T12:57:11;8.10;99.90
28071;DHT22;15383;48.408;9.968;2024-01-30T12:59:37;8.10;99.90
28071;DHT22;15383;48.408;9.968;2024-01-30T13:02:03;8.20;99.90
28071;DHT22;15383;48.408;9.968;2024-01-30T13:04:29;8.10;99.90
28071;DHT22;15383;48.408;9.968;2024-01-30T13:06:55;8.10;99.90
28071;DHT22;15383;48.408;9.968;2024-01-30T13:09:20;8.20;99.90
28071;DHT22;15383;48.408;9.968;2024-01-30T13:11:46;8.10;99.90
28071;DHT22;15383;48.408;9.968;2024-01-30T13:14:12;8.10;99.90
28071;DHT22;15383;48.408;9.968;2024-01-30T13:16:38;8.20;99.90
28071;DHT22;15383;48.408;9.968;2024-01-30T13:19:03;8.20;99.90
28071;DHT22;15383;48.408;9.968;2024-01-30T13:21:29;8.20;99.90
28071;DHT22;15383;48.408;9.968;2024-01-30T13:23:55;8.20;99.90
28071;DHT22;15383;48.408;9.968;2024-01-30T13:26:21;8.20;99.90
28071;DHT22;15383;48.408;9.968;2024-01-30T13:28:46;8.20;99.90
28071;DHT22;15383;48.408;9.968;2024-01-30T13:31:13;8.20;99.90
28071;DHT22;15383;48.408;9.968;2024-01-30T13:33:39;8.20;99.90
28071;DHT22;15383;48.408;9.968;2024-01-30T13:36:04;8.20;99.90
28071;DHT22;15383;48.408;9.968;2024-01-30T13:38:30;8.10;99.90
28071;DHT22;15383;48.408;9.968;2024-01-30T13:40:56;8.10;99.90
28071;DHT22;15383;48.408;9.968;2024-01-30T13:43:21;8.10;99.90
28071;DHT22;15383;48.408;9.968;2024-01-30T13:45:47;8.20;99.90
28071;DHT22;15383;48.408;9.968;2024-01-30T13:48:13;8.10;99.90
28071;DHT22;15383;48.408;9.968;2024-01-30T13:50:38;8.10;99.90
28071;DHT22;15383;48.408;9.968;2024-01-30T13:53:04;8.20;99.90
28071;DHT22;15383;48.408;9.968;2024-01-30T13:55:30;8.10;99.90
28071;DHT22;15383;48.408;9.968;2024-01-30T13:57:55;8.20;99.90
28071;DHT22;15383;48.408;9.968;2024-01-30T14:00:22;8.20;99.90
28071;DHT22;15383;48.408;9.968;2024-01-30T14:02:48;8.20;99.90
28071;DHT22;15383;48.408;9.968;2024-01-30T14:05:14;8.20;99.90
28071;DHT22;15383;48.408;9.968;2024-01-30T14:07:40;8.20;99.90
28071;DHT22;15383;48.408;9.968;2024-01-30T14:10:06;8.20;99.90
28071;DHT22;15383;48.408;9.968;2024-01-30T14:12:32;8.10;99.90
28071;DHT22;15383;48.408;9.968;2024-01-30T14:14:57;8.10;99.90
28071;DHT22;15383;48.408;9.968;2024-01-30T14:17:23;8.10;99.90
28071;DHT22;15383;48.408;9.968;2024-01-30T14:19:48;8.10;99.90
28071;DHT22;15383;48.408;9.968;2024-01-30T14:22:14;8.10;99.90
28071;DHT22;15383;48.408;9.968;2024-01-30T14:24:39;8.10;99.90
28071;DHT22;15383;48.408;9.968;2024-01-30T14:27:05;8.10;99.90
28071;DHT22;15383;48.408;9.968;2024-01-30T14:29:31;8.10;99.90
28071;DHT22;15383;48.408;9.968;2024-01-30T14:31:56;8.10;99.90
28071;DHT22;15383;48.408;9.968;2024-01-30T14:34:22;8.10;99.90
28071;DHT22;15383;48.408;9.968;2024-01-30T14:36:48;8.10;99.90
28071;DHT22;15383;48.408;9.968;2024-01-30T14:39:13;8.10;99.90
28071;DHT22;15383;48.408;9.968;2024-01-30T14:41:39;8.10;99.90
28071;DHT22;15383;48.408;9.968;2024-01-30T14:44:04;8.10;99.90
28071;DHT22;15383;48.408;9.968;2024-01-30T14:46:30;8.10;99.90
28071;DHT22;15383;48.408;9.968;2024-01-30T14:48:56;8.10;99.90
28071;DHT22;15383;48.408;9.968;2024-01-30T14:51:23;8.10;99.90
28071;DHT22;15383;48.408;9.968;2024-01-30T14:53:48;8.10;99.90
28071;DHT22;15383;48.408;9.968;2024-01-30T14:56:14;8.10;99.90
28071;DHT22;15383;48.408;9.968;2024-01-30T14:58:40;8.10;99.90
28071;DHT22;15383;48.408;9.968;2024-01-30T15:01:05;8.10;99.90
28071;DHT22;15383;48.408;9.968;2024-01-30T15:03:31;8.10;99.90
28071;DHT22;15383;48.408;9.968;2024-01-30T15:05:56;8.10;99.90
28071;DHT22;15383;48.408;9.968;2024-01-30T15:08:22;8.10;99.90
28071;DHT22;15383;48.408;9.968;2024-01-30T15:10:47;8.10;99.90
28071;DHT22;15383;48.408;9.968;2024-01-30T15:13:13;8.10;99.90
28071;DHT22;15383;48.408;9.968;2024-01-30T15:15:38;8.10;99.90
28071;DHT22;15383;48.408;9.968;2024-01-30T15:18:04;8.10;99.90
28071;DHT22;15383;48.408;9.968;2024-01-30T15:20:30;8.10;99.90
28071;DHT22;15383;48.408;9.968;2024-01-30T15:22:57;8.10;99.90
28071;DHT22;15383;48.408;9.968;2024-01-30T15:25:22;8.10;99.90
28071;DHT22;15383;48.408;9.968;2024-01-30T15:27:48;8.10;99.90
28071;DHT22;15383;48.408;9.968;2024-01-30T15:30:14;8.10;99.90
28071;DHT22;15383;48.408;9.968;2024-01-30T15:32:39;8.10;99.90
28071;DHT22;15383;48.408;9.968;2024-01-30T15:35:05;8.10;99.90
28071;DHT22;15383;48.408;9.968;2024-01-30T15:37:32;8.10;99.90
28071;DHT22;15383;48.408;9.968;2024-01-30T15:39:57;8.10;99.90
28071;DHT22;15383;48.408;9.968;2024-01-30T15:42:23;8.10;99.90